Time;durP1;ratioP1;P1;durP2;ratioP2;P2;SDS_P1;SDS_P2;PMS_P1;PMS_P2;Temp;Humidity;BMP_temperature;BMP_pressure;BME280_temperature;BME280_humidity;BME280_pressure;Samples;Min_cycle;Max_cycle;Signal;HPM_P1;HPM_P2
2022/10/29 00:00:32;;;;;;;23.40;13.50;;;;;;;14.03;100.00;102010.53;5039231;28;20073;-87
2022/10/29 00:02:58;;;;;;;24.70;13.23;;;;;;;14.04;100.00;102011.41;5022526;28;20139;-85
2022/10/29 00:05:23;;;;;;;27.93;15.03;;;;;;;13.98;100.00;102013.91;5022783;28;20246;-86
2022/10/29 00:07:49;;;;;;;25.53;14.97;;;;;;;14.08;100.00;102002.59;5023460;28;20132;-86
2022/10/29 00:10:14;;;;;;;22.77;12.97;;;;;;;13.87;100.00;102000.03;5022360;28;20033;-87
2022/10/29 00:12:39;;;;;;;21.57;13.10;;;;;;;13.83;100.00;101986.81;5020803;28;20669;-86
2022/10/29 00:15:05;;;;;;;21.93;12.77;;;;;;;13.81;100.00;101988.06;5022970;28;20041;-86
2022/10/29 00:17:31;;;;;;;19.53;11.37;;;;;;;13.74;100.00;101984.50;5037758;28;20168;-87
2022/10/29 00:19:56;;;;;;;23.10;13.37;;;;;;;13.72;100.00;101976.53;5022394;28;20054;-86
2022/10/29 00:22:21;;;;;;;22.03;13.20;;;;;;;13.71;100.00;101979.44;5022409;28;20038;-86
2022/10/29 00:24:47;;;;;;;20.77;12.97;;;;;;;13.60;100.00;101979.00;5023208;28;20589;-85
2022/10/29 00:27:12;;;;;;;23.60;14.10;;;;;;;13.60;100.00;101984.44;5022078;28;20041;-86
2022/10/29 00:29:37;;;;;;;23.77;15.10;;;;;;;13.65;100.00;101984.69;5023251;28;20107;-87
2022/10/29 00:32:03;;;;;;;26.07;15.53;;;;;;;13.67;100.00;101996.19;5021830;28;20033;-86
2022/10/29 00:34:28;;;;;;;25.83;17.20;;;;;;;13.71;100.00;101982.16;5022124;28;20041;-87
2022/10/29 00:36:53;;;;;;;30.23;17.37;;;;;;;13.71;100.00;101996.63;5021874;28;20064;-86
2022/10/29 00:39:19;;;;;;;28.30;17.83;;;;;;;13.74;100.00;101998.13;5022682;28;20052;-86
2022/10/29 00:41:44;;;;;;;30.33;18.10;;;;;;;13.72;100.00;101995.59;5022832;28;20052;-86
2022/10/29 00:44:21;;;;;;;29.80;18.97;;;;;;;13.72;100.00;101998.31;5022468;28;20044;-86
2022/10/29 00:46:51;;;;;;;28.90;17.83;;;;;;;13.69;100.00;101987.81;5022482;28;20170;-84
2022/10/29 00:49:18;;;;;;;29.53;18.60;;;;;;;13.67;100.00;101990.75;5022582;28;20072;-86
2022/10/29 00:51:45;;;;;;;25.50;16.73;;;;;;;13.62;100.00;101997.84;5022178;28;20580;-86
2022/10/29 00:54:13;;;;;;;32.17;21.10;;;;;;;13.82;100.00;101997.94;5037286;28;22058;-86
2022/10/29 00:56:52;;;;;;;33.20;21.97;;;;;;;13.89;100.00;101995.22;5022366;28;20088;-86
2022/10/29 00:59:18;;;;;;;27.97;20.63;;;;;;;13.92;100.00;102008.41;5022413;28;20036;-86
2022/10/29 01:01:45;;;;;;;32.07;20.37;;;;;;;13.95;100.00;102000.69;5021737;28;20398;-87
2022/10/29 01:04:11;;;;;;;32.73;20.40;;;;;;;13.97;100.00;102001.31;5021720;28;20037;-88
2022/10/29 01:06:37;;;;;;;29.90;19.63;;;;;;;14.01;100.00;102008.03;5023803;28;20072;-86
2022/10/29 01:09:02;;;;;;;32.50;19.70;;;;;;;13.97;100.00;101998.59;5036453;28;20044;-87
2022/10/29 01:11:47;;;;;;;29.23;18.50;;;;;;;14.04;100.00;102005.94;5021470;28;20037;-86
2022/10/29 01:14:32;;;;;;;29.63;18.35;;;;;;;14.06;100.00;101998.38;5003461;28;20049;-87
2022/10/29 01:17:09;;;;;;;;;;;;;;;14.14;100.00;101995.47;5022373;28;20128;-86
2022/10/29 01:20:00;;;;;;;30.67;18.63;;;;;;;14.10;100.00;101984.16;5021551;28;20022;-85
2022/10/29 01:22:38;;;;;;;28.27;18.57;;;;;;;14.10;100.00;101975.13;5020633;28;20029;-86
2022/10/29 01:25:18;;;;;;;27.97;17.37;;;;;;;14.10;100.00;101973.25;5021242;28;20043;-87
2022/10/29 01:28:02;;;;;;;27.37;17.13;;;;;;;14.10;100.00;101958.78;5022371;28;20482;-87
2022/10/29 01:31:04;;;;;;;26.60;17.55;;;;;;;14.11;100.00;101964.00;5021477;28;20478;-86
2022/10/29 01:33:58;;;;;;;26.57;17.23;;;;;;;14.08;100.00;101982.69;5020896;28;20041;-84
2022/10/29 01:36:24;;;;;;;29.52;17.63;;;;;;;14.11;100.00;101982.25;5021506;28;20041;-87
2022/10/29 01:39:12;;;;;;;26.13;16.70;;;;;;;14.09;100.00;101977.03;5021573;28;20076;-87
2022/10/29 01:41:49;;;;;;;26.37;17.20;;;;;;;14.08;100.00;101963.59;5021050;28;20052;-86
2022/10/29 01:44:35;;;;;;;27.17;16.73;;;;;;;14.10;100.00;101969.66;5020805;28;20454;-86
2022/10/29 01:47:03;;;;;;;28.87;16.77;;;;;;;14.09;100.00;101959.81;5020255;28;20053;-86
2022/10/29 01:49:37;;;;;;;27.70;17.57;;;;;;;14.10;100.00;101950.59;5020815;28;20839;-88
2022/10/29 01:52:06;;;;;;;23.88;16.17;;;;;;;14.11;100.00;101944.94;5002335;28;20482;-86
2022/10/29 01:54:31;;;;;;;25.53;16.60;;;;;;;14.09;100.00;101944.31;5021386;28;20037;-86
2022/10/29 01:56:58;;;;;;;26.70;16.00;;;;;;;14.02;100.00;101946.22;5021423;28;20154;-86
2022/10/29 01:59:29;;;;;;;27.80;16.30;;;;;;;14.01;100.00;101926.28;5001969;28;20033;-85
2022/10/29 02:02:00;;;;;;;25.33;15.63;;;;;;;14.00;100.00;101924.59;5021317;28;20059;-86
2022/10/29 02:04:40;;;;;;;24.13;15.70;;;;;;;13.98;100.00;101926.69;5021376;28;20043;-87
2022/10/29 02:07:14;;;;;;;27.87;15.83;;;;;;;13.94;100.00;101925.44;5020472;28;20041;-86
2022/10/29 02:09:53;;;;;;;27.05;15.82;;;;;;;13.90;100.00;101924.19;5020333;28;20038;-86
2022/10/29 02:12:38;;;;;;;21.63;15.50;;;;;;;13.90;100.00;101928.78;5020899;28;20044;-86
2022/10/29 02:15:05;;;;;;;26.88;15.77;;;;;;;13.84;100.00;101931.31;5019928;28;20047;-86
2022/10/29 02:17:33;;;;;;;27.57;15.80;;;;;;;13.79;100.00;101932.94;5021022;28;20126;-86
2022/10/29 02:20:03;;;;;;;25.27;15.73;;;;;;;13.73;100.00;101937.34;5019221;28;20053;-87
2022/10/29 02:22:28;;;;;;;27.27;16.13;;;;;;;13.70;100.00;101913.25;5021363;28;20025;-85
2022/10/29 02:24:54;;;;;;;25.93;16.43;;;;;;;13.76;100.00;101922.47;5020860;28;20465;-87
2022/10/29 02:27:19;;;;;;;26.53;16.33;;;;;;;13.74;100.00;101924.56;5001954;28;20045;-85
2022/10/29 02:29:44;;;;;;;26.77;16.27;;;;;;;13.68;100.00;101921.63;5036287;28;20026;-86
2022/10/29 02:32:09;;;;;;;27.20;17.00;;;;;;;13.68;100.00;101910.72;5002028;28;20172;-85
2022/10/29 02:34:35;;;;;;;26.73;16.80;;;;;;;13.64;100.00;101909.47;5019863;28;20064;-86
2022/10/29 02:37:00;;;;;;;28.30;17.53;;;;;;;13.60;100.00;101904.63;5020276;28;20095;-87
2022/10/29 02:39:25;;;;;;;26.70;17.63;;;;;;;13.61;100.00;101909.88;5035969;28;20523;-87
2022/10/29 02:41:51;;;;;;;27.27;17.50;;;;;;;13.58;100.00;101904.81;5019170;28;20037;-85
2022/10/29 02:44:16;;;;;;;26.80;17.83;;;;;;;13.57;100.00;101896.88;5020068;28;20041;-85
2022/10/29 02:46:41;;;;;;;29.63;17.60;;;;;;;13.55;100.00;101899.81;5020150;28;20056;-86
2022/10/29 02:49:07;;;;;;;24.03;17.53;;;;;;;13.53;100.00;101901.06;5019237;28;20476;-86
2022/10/29 02:51:32;;;;;;;26.17;17.73;;;;;;;13.51;100.00;101893.91;5019701;28;20048;-85
2022/10/29 02:53:58;;;;;;;24.90;17.57;;;;;;;13.51;100.00;101898.53;5020288;28;20673;-86
2022/10/29 02:56:23;;;;;;;30.67;18.00;;;;;;;13.49;100.00;101887.84;5019192;28;20041;-85
2022/10/29 02:58:48;;;;;;;29.60;18.53;;;;;;;13.48;100.00;101882.63;5019007;28;20049;-86
2022/10/29 03:01:14;;;;;;;28.97;17.87;;;;;;;13.47;100.00;101886.38;5020367;28;20037;-86
2022/10/29 03:03:39;;;;;;;29.13;18.57;;;;;;;13.47;100.00;101891.81;5019772;28;21512;-86
2022/10/29 03:06:11;;;;;;;28.97;18.97;;;;;;;13.46;100.00;101892.88;5019839;28;20065;-85
2022/10/29 03:08:37;;;;;;;30.30;19.13;;;;;;;13.44;100.00;101892.25;5011434;28;20444;-86
2022/10/29 03:11:02;;;;;;;29.93;19.83;;;;;;;13.45;100.00;101891.19;5019312;28;20357;-86
2022/10/29 03:13:27;;;;;;;30.30;19.23;;;;;;;13.45;100.00;101889.31;5019598;28;20033;-87
2022/10/29 03:15:54;;;;;;;30.27;19.03;;;;;;;13.39;100.00;101878.41;5034815;28;20030;-86
2022/10/29 03:18:19;;;;;;;28.47;19.87;;;;;;;13.41;100.00;101877.16;5019204;28;20056;-86
2022/10/29 03:20:46;;;;;;;30.67;18.27;;;;;;;13.38;100.00;101880.31;5019695;28;20045;-85
2022/10/29 03:23:11;;;;;;;28.57;18.97;;;;;;;13.39;100.00;101883.84;5019316;28;20627;-86
2022/10/29 03:25:37;;;;;;;29.23;18.60;;;;;;;13.37;100.00;101881.34;5019764;28;20116;-85
2022/10/29 03:28:02;;;;;;;30.00;19.37;;;;;;;13.39;100.00;101879.22;5019340;28;20036;-86
2022/10/29 03:30:27;;;;;;;26.73;19.23;;;;;;;13.35;100.00;101872.50;5018173;28;20032;-86
2022/10/29 03:32:53;;;;;;;30.67;19.63;;;;;;;13.37;100.00;101866.88;5017778;28;20037;-86
2022/10/29 03:35:18;;;;;;;31.73;20.33;;;;;;;13.34;100.00;101865.34;5033739;28;20037;-84
2022/10/29 03:37:44;;;;;;;34.50;21.90;;;;;;;13.34;100.00;101871.66;5019831;28;20030;-87
2022/10/29 03:40:09;;;;;;;31.67;20.77;;;;;;;13.34;100.00;101866.22;5018631;28;20637;-86
2022/10/29 03:42:37;;;;;;;30.00;20.47;;;;;;;13.28;100.00;101849.88;5018980;28;20120;-85
2022/10/29 03:45:02;;;;;;;30.93;20.47;;;;;;;13.36;100.00;101860.59;5018323;28;20033;-87
2022/10/29 03:47:28;;;;;;;32.03;21.47;;;;;;;13.39;100.00;101856.63;5019148;28;20044;-85
2022/10/29 03:49:53;;;;;;;30.43;20.20;;;;;;;13.38;100.00;101853.09;5034078;28;20041;-86
2022/10/29 03:52:19;;;;;;;31.23;20.40;;;;;;;13.42;100.00;101856.22;5019098;28;20103;-84
2022/10/29 03:54:44;;;;;;;26.07;19.80;;;;;;;13.33;100.00;101861.81;5019248;28;20037;-85
2022/10/29 03:57:10;;;;;;;27.60;18.23;;;;;;;13.32;100.00;101856.56;5019633;28;20033;-85
2022/10/29 03:59:35;;;;;;;29.27;18.97;;;;;;;13.27;100.00;101854.47;5034070;28;20049;-85
2022/10/29 04:02:00;;;;;;;29.47;19.67;;;;;;;13.28;100.00;101861.59;5018814;28;20501;-85
2022/10/29 04:04:26;;;;;;;28.17;18.37;;;;;;;13.32;100.00;101854.69;5018334;28;20080;-85
2022/10/29 04:06:51;;;;;;;31.90;19.50;;;;;;;13.35;100.00;101853.44;5018193;28;20152;-84
2022/10/29 04:09:16;;;;;;;29.80;19.10;;;;;;;13.30;100.00;101843.19;5017927;28;20042;-85
2022/10/29 04:11:42;;;;;;;26.97;17.17;;;;;;;13.24;100.00;101833.09;5019068;28;20046;-86
2022/10/29 04:14:07;;;;;;;23.67;16.90;;;;;;;13.17;100.00;101832.25;5017871;28;20049;-86
2022/10/29 04:16:32;;;;;;;24.73;16.97;;;;;;;13.25;100.00;101829.34;5019016;28;20120;-86
2022/10/29 04:18:58;;;;;;;26.47;17.50;;;;;;;13.18;100.00;101817.63;5018723;28;20057;-85
2022/10/29 04:21:23;;;;;;;27.00;17.47;;;;;;;13.13;100.00;101820.09;5018690;28;20040;-85
2022/10/29 04:23:49;;;;;;;29.97;18.57;;;;;;;13.15;100.00;101834.31;5019033;28;20044;-85
2022/10/29 04:26:15;;;;;;;29.23;17.93;;;;;;;13.14;100.00;101824.50;5016715;28;20042;-84
2022/10/29 04:28:40;;;;;;;25.23;16.63;;;;;;;13.10;100.00;101815.06;5018390;28;20044;-86
2022/10/29 04:31:08;;;;;;;30.90;19.07;;;;;;;13.17;100.00;101827.63;5018748;28;20041;-85
2022/10/29 04:33:34;;;;;;;30.60;19.63;;;;;;;13.21;100.00;101822.63;5019451;28;20060;-86
2022/10/29 04:35:59;;;;;;;32.13;20.43;;;;;;;13.22;100.00;101815.28;5018637;28;20041;-85
2022/10/29 04:38:24;;;;;;;26.30;19.00;;;;;;;13.27;100.00;101807.34;5018317;28;20088;-86
2022/10/29 04:40:50;;;;;;;26.83;18.07;;;;;;;13.21;100.00;101805.47;5017497;28;20439;-86
2022/10/29 04:43:16;;;;;;;28.23;18.83;;;;;;;13.18;100.00;101796.66;5019229;28;20037;-85
2022/10/29 04:45:41;;;;;;;26.30;19.33;;;;;;;13.21;100.00;101811.75;5022369;28;20076;-85
2022/10/29 04:48:07;;;;;;;28.47;18.23;;;;;;;13.18;100.00;101821.16;5021901;28;20044;-85
2022/10/29 04:50:35;;;;;;;25.53;18.47;;;;;;;13.12;100.00;101813.84;5021526;28;20452;-85
2022/10/29 04:53:02;;;;;;;28.07;17.90;;;;;;;13.06;100.00;101820.06;5022526;28;20033;-85
2022/10/29 04:55:27;;;;;;;27.03;18.60;;;;;;;13.09;100.00;101824.28;5021433;28;20557;-85
2022/10/29 04:57:53;;;;;;;23.67;16.10;;;;;;;12.96;100.00;101831.34;5021258;28;20029;-85
2022/10/29 05:00:19;;;;;;;27.73;17.60;;;;;;;12.97;100.00;101827.59;5022120;28;20480;-85
2022/10/29 05:02:52;;;;;;;26.23;18.00;;;;;;;13.00;100.00;101820.88;5022439;28;20406;-85
2022/10/29 05:05:19;;;;;;;27.47;18.40;;;;;;;13.03;100.00;101822.34;5003306;28;20064;-85
2022/10/29 05:07:45;;;;;;;28.47;17.93;;;;;;;12.96;100.00;101823.19;5022835;28;20039;-84
2022/10/29 05:10:10;;;;;;;26.23;17.97;;;;;;;12.96;100.00;101815.03;5021259;28;20040;-84
2022/10/29 05:12:36;;;;;;;28.10;18.93;;;;;;;12.95;100.00;101813.34;5037233;28;20160;-84
2022/10/29 05:15:02;;;;;;;26.60;18.60;;;;;;;12.89;100.00;101811.47;5020678;28;20473;-84
2022/10/29 05:17:27;;;;;;;26.13;18.30;;;;;;;12.87;100.00;101799.09;5021543;28;20041;-85
2022/10/29 05:19:53;;;;;;;25.83;17.83;;;;;;;12.91;100.00;101795.75;5021033;28;20255;-83
2022/10/29 05:22:18;;;;;;;24.87;17.03;;;;;;;12.80;100.00;101801.78;5022258;28;20060;-84
2022/10/29 05:24:43;;;;;;;29.73;18.80;;;;;;;12.84;100.00;101812.06;5002898;28;20026;-85
2022/10/29 05:27:09;;;;;;;28.97;18.87;;;;;;;12.90;100.00;101804.94;5022160;28;20093;-86
2022/10/29 05:29:34;;;;;;;30.37;18.60;;;;;;;12.91;100.00;101800.38;5020845;28;20466;-84
2022/10/29 05:32:00;;;;;;;29.13;19.70;;;;;;;12.90;100.00;101793.25;5002613;28;20072;-85
2022/10/29 05:34:25;;;;;;;29.63;19.30;;;;;;;12.80;100.00;101799.06;5021085;28;20037;-84
2022/10/29 05:36:50;;;;;;;23.50;16.57;;;;;;;12.75;100.00;101793.41;5020944;28;20048;-83
2022/10/29 05:39:16;;;;;;;27.47;17.53;;;;;;;12.72;100.00;101802.81;5020257;28;20136;-86
2022/10/29 05:41:41;;;;;;;25.93;18.77;;;;;;;12.82;100.00;101796.97;5020644;28;20131;-85
2022/10/29 05:44:07;;;;;;;30.13;20.17;;;;;;;12.87;100.00;101791.78;5020548;28;20048;-85
2022/10/29 05:47:00;;;;;;;32.40;20.33;;;;;;;12.95;100.00;101791.59;5021365;28;20037;-86
2022/10/29 05:49:25;;;;;;;33.47;21.77;;;;;;;12.93;100.00;101784.66;5021357;28;20030;-85
2022/10/29 05:51:51;;;;;;;33.43;21.77;;;;;;;12.93;100.00;101771.06;5003401;28;20040;-85
2022/10/29 05:54:17;;;;;;;33.07;21.93;;;;;;;12.96;100.00;101782.38;5000895;28;20036;-84
2022/10/29 05:56:42;;;;;;;34.27;22.30;;;;;;;13.02;100.00;101780.72;5020396;28;20412;-86
2022/10/29 05:59:08;;;;;;;37.67;23.63;;;;;;;13.05;100.00;101774.03;5020412;28;20072;-84
2022/10/29 06:01:33;;;;;;;32.93;22.67;;;;;;;13.07;100.00;101771.94;5020167;28;20061;-84
2022/10/29 06:04:00;;;;;;;34.40;22.77;;;;;;;13.10;100.00;101777.00;5035621;28;20393;-85
2022/10/29 06:06:25;;;;;;;33.37;23.00;;;;;;;13.15;100.00;101769.88;5020964;28;20064;-83
2022/10/29 06:08:51;;;;;;;33.53;22.77;;;;;;;13.16;100.00;101765.25;5034985;28;20509;-84
2022/10/29 06:11:16;;;;;;;31.27;22.57;;;;;;;13.20;100.00;101763.81;5034741;28;20037;-85
2022/10/29 06:13:41;;;;;;;33.00;22.90;;;;;;;13.14;100.00;101756.47;5020357;28;20721;-84
2022/10/29 06:16:07;;;;;;;36.00;23.07;;;;;;;13.23;100.00;101757.13;5018127;28;20167;-85
2022/10/29 06:18:32;;;;;;;33.43;22.17;;;;;;;13.24;100.00;101765.06;5001717;28;20045;-85
2022/10/29 06:20:59;;;;;;;32.87;22.60;;;;;;;13.28;100.00;101763.59;5002541;28;20121;-86
2022/10/29 06:23:25;;;;;;;32.43;22.07;;;;;;;13.29;100.00;101769.91;5019941;28;20128;-85
2022/10/29 06:25:50;;;;;;;34.13;22.97;;;;;;;13.31;100.00;101773.25;5036009;28;20064;-82
2022/10/29 06:28:17;;;;;;;35.60;22.33;;;;;;;13.34;100.00;101767.38;5021168;28;20060;-86
2022/10/29 06:30:50;;;;;;;32.57;22.40;;;;;;;13.37;100.00;101774.31;5018900;28;20064;-87
2022/10/29 06:33:17;;;;;;;32.60;22.10;;;;;;;13.38;100.00;101779.59;5020084;28;20047;-86
2022/10/29 06:35:42;;;;;;;34.37;21.73;;;;;;;13.40;100.00;101788.38;5019438;28;20041;-87
2022/10/29 06:38:08;;;;;;;32.00;21.67;;;;;;;13.42;100.00;101790.88;5019553;28;20119;-87
2022/10/29 06:40:33;;;;;;;31.40;21.17;;;;;;;13.47;100.00;101788.38;5019454;28;21434;-86
2022/10/29 06:43:03;;;;;;;32.40;20.73;;;;;;;13.47;100.00;101782.94;5020441;28;20037;-85
2022/10/29 06:45:30;;;;;;;31.20;21.17;;;;;;;13.51;100.00;101785.00;5019456;28;20580;-85
2022/10/29 06:47:55;;;;;;;33.57;20.60;;;;;;;13.53;100.00;101786.69;5002045;28;20378;-87
2022/10/29 06:50:21;;;;;;;30.73;20.73;;;;;;;13.52;100.00;101791.31;5020046;28;20369;-87
2022/10/29 06:52:59;;;;;;;30.03;20.33;;;;;;;13.56;100.00;101794.44;5019900;28;20065;-86
2022/10/29 06:55:25;;;;;;;30.37;20.13;;;;;;;13.58;100.00;101795.09;5019989;28;21716;-86
2022/10/29 06:58:05;;;;;;;28.80;19.47;;;;;;;13.55;100.00;101782.72;5018845;28;20159;-86
2022/10/29 07:00:31;;;;;;;30.37;19.83;;;;;;;13.60;100.00;101798.41;5019271;28;20041;-86
2022/10/29 07:02:57;;;;;;;29.47;20.10;;;;;;;13.56;100.00;101791.72;5001255;28;20033;-85
2022/10/29 07:05:23;;;;;;;29.97;20.00;;;;;;;13.62;100.00;101790.91;5018828;28;20045;-85
2022/10/29 07:07:48;;;;;;;30.97;19.30;;;;;;;13.62;100.00;101793.63;5020535;28;20034;-85
2022/10/29 07:10:14;;;;;;;27.33;18.93;;;;;;;13.66;100.00;101798.44;5019073;28;20521;-84
2022/10/29 07:12:43;;;;;;;30.53;19.07;;;;;;;13.66;100.00;101792.97;4995564;28;20025;-84
2022/10/29 07:15:10;;;;;;;29.13;19.47;;;;;;;13.70;100.00;101795.31;5019090;28;20416;-84
2022/10/29 07:17:35;;;;;;;28.87;19.20;;;;;;;13.71;100.00;101795.09;5034018;28;20060;-84
2022/10/29 07:20:01;;;;;;;28.37;19.23;;;;;;;13.74;100.00;101793.84;5017624;28;20510;-84
2022/10/29 07:22:26;;;;;;;33.70;19.53;;;;;;;13.73;100.00;101792.16;5019418;28;20513;-84
2022/10/29 07:24:52;;;;;;;29.13;18.97;;;;;;;13.75;100.00;101790.03;5018959;28;20044;-84
2022/10/29 07:27:17;;;;;;;29.60;19.03;;;;;;;13.80;100.00;101796.56;5018865;28;20041;-84
2022/10/29 07:29:42;;;;;;;30.37;19.17;;;;;;;13.82;100.00;101785.44;5019660;28;20051;-84
2022/10/29 07:32:08;;;;;;;29.27;19.60;;;;;;;13.92;100.00;101783.13;5019780;28;20041;-85
2022/10/29 07:34:33;;;;;;;28.37;19.80;;;;;;;13.98;100.00;101778.72;5035036;28;20156;-84
2022/10/29 07:36:58;;;;;;;29.80;19.33;;;;;;;14.02;100.00;101775.38;5018990;28;20589;-84
2022/10/29 07:39:24;;;;;;;29.20;19.03;;;;;;;14.07;100.00;101771.16;5017809;28;20627;-84
2022/10/29 07:41:49;;;;;;;29.67;18.90;;;;;;;14.10;100.00;101771.59;5018513;28;20045;-83
2022/10/29 07:44:15;;;;;;;27.33;17.93;;;;;;;14.16;100.00;101772.63;5017959;28;20068;-84
2022/10/29 07:46:40;;;;;;;28.77;18.00;;;;;;;14.20;100.00;101771.16;5018285;28;21579;-84
2022/10/29 07:49:05;;;;;;;29.83;18.10;;;;;;;14.25;100.00;101779.53;5018754;28;20065;-85
2022/10/29 07:51:31;;;;;;;25.60;17.80;;;;;;;14.29;100.00;101779.91;5019298;28;20405;-84
2022/10/29 07:53:56;;;;;;;29.23;18.27;;;;;;;14.37;100.00;101776.13;5018311;28;20713;-83
2022/10/29 07:56:21;;;;;;;27.80;17.80;;;;;;;14.53;100.00;101768.28;5018800;28;20288;-84
2022/10/29 07:58:47;;;;;;;28.77;17.60;;;;;;;14.75;100.00;101778.13;5019028;28;20049;-84
2022/10/29 08:01:12;;;;;;;25.67;17.40;;;;;;;14.85;100.00;101770.31;5018310;28;20086;-82
2022/10/29 08:04:15;;;;;;;27.40;16.83;;;;;;;14.99;100.00;101768.34;5019062;28;20044;-88
2022/10/29 08:06:40;;;;;;;25.67;16.30;;;;;;;14.94;100.00;101755.34;5019025;28;20040;-83
2022/10/29 08:09:06;;;;;;;28.37;16.70;;;;;;;15.00;100.00;101759.94;5033163;28;20061;-84
2022/10/29 08:11:31;;;;;;;30.23;16.33;;;;;;;15.16;100.00;101758.56;5018454;28;20484;-84
2022/10/29 08:13:57;;;;;;;23.03;15.57;;;;;;;15.33;100.00;101769.78;5033462;28;20033;-85
2022/10/29 08:16:23;;;;;;;25.30;16.53;;;;;;;15.31;100.00;101766.47;5000002;28;20381;-84
2022/10/29 08:18:48;;;;;;;26.27;15.77;;;;;;;15.31;100.00;101766.47;5021770;28;20053;-85
2022/10/29 08:21:14;;;;;;;24.83;15.87;;;;;;;15.29;100.00;101776.75;5037006;28;20489;-85
2022/10/29 08:23:39;;;;;;;26.80;16.20;;;;;;;15.27;100.00;101757.03;5022719;28;20483;-87
2022/10/29 08:26:05;;;;;;;27.63;16.10;;;;;;;15.32;100.00;101751.72;5022414;28;20041;-85
2022/10/29 08:28:30;;;;;;;25.77;16.37;;;;;;;15.34;100.00;101752.34;5023490;28;20073;-86
2022/10/29 08:30:55;;;;;;;24.10;15.50;;;;;;;15.32;100.00;101761.81;5021794;28;20060;-86
2022/10/29 08:33:21;;;;;;;24.70;15.43;;;;;;;15.37;100.00;101753.81;5004090;28;20124;-85
2022/10/29 08:35:46;;;;;;;26.10;15.23;;;;;;;15.46;100.00;101751.63;5037205;28;20124;-86
2022/10/29 08:38:12;;;;;;;25.33;15.77;;;;;;;15.51;100.00;101743.59;5022105;28;20394;-86
2022/10/29 08:41:02;;;;;;;25.23;16.10;;;;;;;15.53;100.00;101742.31;5021488;28;20045;-86
2022/10/29 08:43:51;;;;;;;23.77;15.50;;;;;;;15.63;100.00;101741.81;5022296;28;20041;-87
2022/10/29 08:46:41;;;;;;;29.70;16.10;;;;;;;15.67;100.00;101759.44;5022656;28;20033;-86
2022/10/29 08:49:15;;;;;;;25.07;15.17;;;;;;;15.72;100.00;101766.97;5022320;28;20040;-87
2022/10/29 08:51:46;;;;;;;27.57;16.50;;;;;;;15.78;100.00;101765.25;5021310;28;20592;-85
2022/10/29 08:54:14;;;;;;;26.50;15.27;;;;;;;15.88;100.00;101765.56;5022185;28;20045;-86
2022/10/29 08:56:48;;;;;;;26.17;15.73;;;;;;;15.94;100.00;101758.38;5020897;28;20128;-86
2022/10/29 08:59:13;;;;;;;;;;;;;;;16.13;100.00;101762.81;5022729;28;20164;-86
2022/10/29 09:01:39;;;;;;;23.53;14.77;;;;;;;16.02;100.00;101753.47;5021544;28;20357;-87
2022/10/29 09:04:18;;;;;;;23.67;15.63;;;;;;;16.08;100.00;101753.63;5021785;28;20543;-86
2022/10/29 09:07:02;;;;;;;25.27;15.67;;;;;;;16.10;100.00;101746.00;5021743;28;20060;-86
2022/10/29 09:09:40;;;;;;;;;;;;;;;16.27;100.00;101747.09;5022127;28;20044;-86
2022/10/29 09:12:23;;;;;;;25.17;15.30;;;;;;;16.20;100.00;101744.44;5021290;28;20344;-83
2022/10/29 09:15:02;;;;;;;26.10;15.80;;;;;;;16.21;100.00;101745.28;5037162;28;20061;-86
2022/10/29 09:17:42;;;;;;;25.17;16.23;;;;;;;16.32;100.00;101744.50;5021951;28;20037;-87
2022/10/29 09:20:22;;;;;;;24.23;16.43;;;;;;;16.40;100.00;101728.84;5020431;28;20054;-85
2022/10/29 09:23:24;;;;;;;23.37;15.77;;;;;;;16.50;100.00;101729.97;5021866;28;20053;-84
2022/10/29 09:26:13;;;;;;;23.90;16.53;;;;;;;16.56;100.00;101736.44;5021389;28;20041;-87
2022/10/29 09:28:49;;;;;;;27.00;15.67;;;;;;;16.63;100.00;101734.47;5021424;28;20120;-87
2022/10/29 09:31:38;;;;;;;25.33;16.10;;;;;;;16.71;100.00;101728.66;5019880;28;20037;-88
2022/10/29 09:34:12;;;;;;;26.63;17.17;;;;;;;16.75;100.00;101739.13;5021193;28;20545;-87
2022/10/29 09:36:38;;;;;;;25.48;16.55;;;;;;;16.78;100.00;101735.94;5019111;28;20693;-87
2022/10/29 09:39:13;;;;;;;23.77;15.83;;;;;;;16.82;100.00;101738.00;5036109;28;20421;-87
2022/10/29 09:41:39;;;;;;;26.03;16.20;;;;;;;16.87;100.00;101731.81;5020301;28;20539;-87
2022/10/29 09:44:22;;;;;;;24.00;15.83;;;;;;;16.90;100.00;101720.41;5021838;28;20041;-87
2022/10/29 09:46:53;;;;;;;23.97;16.33;;;;;;;16.90;100.00;101728.63;5018987;28;20052;-88
2022/10/29 09:49:51;;;;;;;26.10;16.77;;;;;;;16.98;100.00;101732.94;5019268;28;20478;-87
2022/10/29 09:52:25;;;;;;;24.93;16.37;;;;;;;16.94;100.00;101734.47;5016590;28;20080;-86
2022/10/29 09:54:52;;;;;;;25.45;15.43;;;;;;;16.98;100.00;101741.16;5021307;28;20377;-86
2022/10/29 09:57:22;;;;;;;25.20;15.93;;;;;;;17.04;100.00;101723.81;5021349;28;20045;-87
2022/10/29 09:59:55;;;;;;;25.67;15.70;;;;;;;17.08;100.00;101708.59;5019889;28;20032;-87
2022/10/29 10:02:27;;;;;;;25.57;15.97;;;;;;;17.19;100.00;101705.03;5018514;28;20040;-87
2022/10/29 10:04:56;;;;;;;23.37;15.63;;;;;;;17.32;100.00;101705.88;5036018;28;20303;-87
2022/10/29 10:07:21;;;;;;;21.50;15.03;;;;;;;17.41;100.00;101689.91;5020811;28;20120;-86
2022/10/29 10:09:52;;;;;;;25.53;15.07;;;;;;;17.53;100.00;101702.56;5019598;28;20404;-87
2022/10/29 10:12:20;;;;;;;21.63;14.53;;;;;;;17.65;100.00;101699.84;5021242;28;20502;-87
2022/10/29 10:14:47;;;;;;;23.13;13.73;;;;;;;17.85;100.00;101696.72;5020300;28;20064;-87
2022/10/29 10:17:12;;;;;;;26.63;14.47;;;;;;;18.47;100.00;101705.47;4995769;28;20030;-88
2022/10/29 10:19:45;;;;;;;23.98;13.80;;;;;;;18.87;97.45;101697.13;5020206;28;20049;-88
2022/10/29 10:22:23;;;;;;;23.55;12.55;;;;;;;19.46;93.56;101703.38;5001534;28;20038;-87
2022/10/29 10:24:48;;;;;;;19.30;11.50;;;;;;;19.73;90.12;101707.09;5019915;28;20076;-87
2022/10/29 10:27:17;;;;;;;19.63;11.07;;;;;;;20.03;87.35;101705.91;5020580;28;20045;-87
2022/10/29 10:29:43;;;;;;;18.58;9.90;;;;;;;20.30;83.85;101713.38;5020635;28;20047;-87
2022/10/29 10:32:15;;;;;;;19.08;9.93;;;;;;;20.71;84.64;101708.38;5018773;28;20036;-87
2022/10/29 10:34:41;;;;;;;17.42;9.48;;;;;;;20.90;81.12;101703.34;5019843;28;20036;-88
2022/10/29 10:37:09;;;;;;;18.30;10.05;;;;;;;21.03;79.52;101701.25;5001559;28;20028;-86
2022/10/29 10:39:40;;;;;;;17.67;9.40;;;;;;;21.06;77.28;101696.03;5020260;28;20520;-87
2022/10/29 10:42:21;;;;;;;16.92;8.80;;;;;;;21.19;77.19;101688.44;5019328;28;20108;-88
2022/10/29 10:44:51;;;;;;;20.92;9.30;;;;;;;21.36;76.37;101694.63;5019242;28;20089;-86
2022/10/29 10:47:21;;;;;;;18.00;8.82;;;;;;;21.52;76.06;101678.22;5020368;28;20064;-87
2022/10/29 10:49:47;;;;;;;17.30;8.13;;;;;;;21.69;74.42;101689.94;5003391;28;20061;-86
2022/10/29 10:52:31;;;;;;;18.85;8.73;;;;;;;22.00;77.89;101678.22;5019841;28;20179;-88
2022/10/29 10:55:01;;;;;;;;;;;;;;;22.32;71.80;101680.84;5034982;28;20057;-87
2022/10/29 10:58:00;;;;;;;16.85;6.85;;;;;;;22.23;73.13;101675.00;5019847;28;19970;-89
2022/10/29 11:00:30;;;;;;;17.83;7.65;;;;;;;22.38;71.02;101667.91;5006665;28;20065;-87
2022/10/29 11:03:07;;;;;;;17.02;7.68;;;;;;;22.56;70.76;101672.09;5019484;28;20485;-86
2022/10/29 11:05:40;;;;;;;15.23;6.95;;;;;;;22.68;70.52;101667.13;5020099;28;20043;-87
2022/10/29 11:08:19;;;;;;;15.57;7.43;;;;;;;22.66;70.14;101669.38;5019736;28;20041;-89
2022/10/29 11:10:50;;;;;;;16.38;7.05;;;;;;;22.77;69.20;101684.84;5018161;28;20036;-87
2022/10/29 11:13:20;;;;;;;14.13;6.97;;;;;;;22.80;67.76;101675.19;5019247;28;20612;-87